Time;durP1;ratioP1;P1;durP2;ratioP2;P2;SDS_P1;SDS_P2;PMS_P1;PMS_P2;Temp;Humidity;BMP_temperature;BMP_pressure;BME280_temperature;BME280_humidity;BME280_pressure;Samples;Min_cycle;Max_cycle;Signal;HPM_P1;HPM_P2
2021/03/19 00:00:11;;;;;;;11.37;3.83;;;5.90;94.00;;;;;;5036260;28;20524;-88
2021/03/19 00:02:37;;;;;;;10.20;3.93;;;5.80;94.40;;;;;;5036458;28;20565;-80
2021/03/19 00:05:09;;;;;;;10.43;3.60;;;5.80;93.60;;;;;;5036553;28;20182;-86
2021/03/19 00:07:43;;;;;;;9.77;4.07;;;5.80;93.90;;;;;;5036530;28;20173;-83
2021/03/19 00:10:11;;;;;;;9.73;3.33;;;5.70;94.40;;;;;;5036257;28;20503;-85
2021/03/19 00:12:37;;;;;;;9.80;4.07;;;5.70;93.90;;;;;;5036681;28;20174;-83
2021/03/19 00:15:04;;;;;;;12.77;4.13;;;5.60;93.50;;;;;;5036086;28;20552;-89
2021/03/19 00:17:29;;;;;;;9.20;3.80;;;5.60;93.70;;;;;;5036620;28;20170;-83
2021/03/19 00:19:55;;;;;;;9.37;3.63;;;5.60;94.00;;;;;;5036542;28;20174;-87
2021/03/19 00:22:21;;;;;;;8.80;3.10;;;5.60;93.90;;;;;;5036494;28;20173;-79
2021/03/19 00:24:48;;;;;;;10.27;3.13;;;5.50;93.20;;;;;;5036590;28;20162;-86
2021/03/19 00:27:13;;;;;;;13.30;3.93;;;5.50;93.60;;;;;;5035923;28;20227;-81
2021/03/19 00:29:39;;;;;;;7.87;3.40;;;5.50;93.20;;;;;;5035819;28;20181;-87
2021/03/19 00:32:05;;;;;;;9.07;4.10;;;5.50;93.50;;;;;;5036255;28;20213;-86
2021/03/19 00:34:31;;;;;;;8.43;3.30;;;5.50;93.80;;;;;;5035885;28;20174;-82
2021/03/19 00:36:57;;;;;;;11.63;3.83;;;5.40;93.50;;;;;;5036904;28;20173;-88
2021/03/19 00:39:22;;;;;;;11.50;3.40;;;5.40;94.10;;;;;;5036410;28;20201;-89
2021/03/19 00:41:48;;;;;;;9.43;3.70;;;5.50;94.40;;;;;;5035943;28;20248;-85
2021/03/19 00:44:13;;;;;;;8.57;3.47;;;5.40;94.20;;;;;;5036242;28;20186;-81
2021/03/19 00:46:39;;;;;;;7.37;3.10;;;5.30;94.40;;;;;;5036159;28;20562;-84
2021/03/19 00:49:05;;;;;;;13.43;3.27;;;5.30;94.30;;;;;;5036876;28;20166;-84
2021/03/19 00:51:30;;;;;;;12.20;3.97;;;5.30;94.70;;;;;;5041390;28;20194;-87
2021/03/19 00:53:56;;;;;;;7.60;3.10;;;5.20;94.60;;;;;;5042905;28;20196;-78
2021/03/19 00:56:22;;;;;;;9.97;3.40;;;5.30;94.70;;;;;;5039594;28;20579;-83
2021/03/19 00:58:47;;;;;;;13.87;3.83;;;5.30;94.90;;;;;;5035975;28;20202;-83
2021/03/19 01:01:13;;;;;;;7.63;3.10;;;5.30;94.80;;;;;;5035812;28;20173;-84
2021/03/19 01:03:38;;;;;;;8.83;3.00;;;5.20;95.00;;;;;;5036413;28;20177;-79
2021/03/19 01:06:05;;;;;;;7.20;2.70;;;5.20;95.00;;;;;;5040808;28;20654;-82
2021/03/19 01:08:31;;;;;;;12.57;3.23;;;5.20;95.40;;;;;;5035531;28;20166;-84
2021/03/19 01:10:57;;;;;;;11.03;2.87;;;5.10;95.10;;;;;;5035986;28;20170;-86
2021/03/19 01:13:24;;;;;;;9.67;3.13;;;5.20;95.10;;;;;;5042903;28;20181;-77
2021/03/19 01:15:51;;;;;;;9.63;3.00;;;5.10;95.20;;;;;;5050429;28;20174;-77
2021/03/19 01:18:21;;;;;;;12.70;3.57;;;5.10;95.40;;;;;;5050357;28;20206;-82
2021/03/19 01:20:47;;;;;;;7.30;3.00;;;5.10;95.40;;;;;;5050225;28;20165;-78
2021/03/19 01:23:15;;;;;;;9.00;3.13;;;5.10;95.30;;;;;;5049267;28;20251;-78
2021/03/19 01:25:41;;;;;;;8.10;2.90;;;5.10;95.10;;;;;;5051292;28;20229;-80
2021/03/19 01:28:07;;;;;;;8.57;3.13;;;5.10;95.20;;;;;;5042001;28;20178;-81
2021/03/19 01:30:39;;;;;;;7.97;3.00;;;5.10;95.10;;;;;;5038621;28;20166;-81
2021/03/19 01:33:05;;;;;;;9.73;3.10;;;5.00;95.50;;;;;;5042889;28;20174;-80
2021/03/19 01:35:33;;;;;;;11.87;2.97;;;5.10;95.60;;;;;;5036670;28;20162;-85
2021/03/19 01:37:59;;;;;;;7.13;2.90;;;5.00;95.70;;;;;;5034921;28;20201;-87
2021/03/19 01:40:31;;;;;;;9.10;3.67;;;4.90;96.00;;;;;;5035303;28;20174;-89
2021/03/19 01:43:08;;;;;;;5.77;2.47;;;4.90;96.10;;;;;;5034964;28;20184;-82
2021/03/19 01:45:59;;;;;;;13.10;3.40;;;4.90;96.00;;;;;;5035067;28;20228;-84
2021/03/19 01:55:14;;;;;;;8.60;3.50;;;4.70;96.70;;;;;;5035363;28;20169;-85
2021/03/19 01:58:17;;;;;;;8.07;3.33;;;4.70;96.90;;;;;;5035063;28;20695;-83
2021/03/19 02:01:20;;;;;;;8.73;3.20;;;4.70;96.90;;;;;;5034913;28;20189;-88
2021/03/19 02:04:24;;;;;;;8.20;2.90;;;4.70;97.10;;;;;;5034941;28;20169;-87
2021/03/19 02:07:27;;;;;;;7.10;3.10;;;4.70;97.10;;;;;;5035043;28;20166;-79
2021/03/19 02:10:30;;;;;;;12.37;3.87;;;4.60;97.10;;;;;;5034751;28;20169;-86
2021/03/19 02:13:33;;;;;;;9.03;3.33;;;4.60;97.30;;;;;;5034555;28;20184;-82
2021/03/19 02:16:36;;;;;;;11.23;3.37;;;4.60;97.60;;;;;;5034603;28;20173;-79
2021/03/19 02:19:39;;;;;;;9.93;3.40;;;4.50;97.40;;;;;;5033874;28;20212;-82
2021/03/19 02:22:41;;;;;;;8.97;3.83;;;4.50;97.40;;;;;;5034703;28;20268;-88
2021/03/19 02:25:45;;;;;;;4.97;3.43;;;4.40;97.20;;;;;;5037012;28;20169;-88
2021/03/19 02:28:48;;;;;;;11.23;3.70;;;4.40;97.50;;;;;;5034492;28;20170;-87
2021/03/19 02:31:13;;;;;;;7.13;3.27;;;4.30;97.70;;;;;;5034454;28;20180;-87
2021/03/19 02:33:55;;;;;;;7.90;4.03;;;4.40;97.80;;;;;;5034148;28;20162;-85
2021/03/19 02:36:27;;;;;;;9.17;4.13;;;4.40;97.90;;;;;;5034345;28;20170;-86
2021/03/19 02:38:53;;;;;;;7.53;4.00;;;4.20;97.70;;;;;;5034570;28;20684;-87
2021/03/19 02:41:20;;;;;;;8.83;4.60;;;4.40;97.90;;;;;;5034187;28;20174;-89
2021/03/19 02:43:46;;;;;;;7.43;3.77;;;4.40;97.70;;;;;;5034264;28;20166;-89
2021/03/19 02:46:12;;;;;;;7.60;3.60;;;4.40;97.80;;;;;;5034383;28;20677;-88
2021/03/19 02:48:38;;;;;;;6.63;3.80;;;4.30;97.90;;;;;;5033058;28;20201;-86
2021/03/19 02:51:05;;;;;;;6.70;3.63;;;4.30;98.10;;;;;;5034312;28;20552;-84
2021/03/19 02:53:32;;;;;;;10.23;3.80;;;4.30;98.10;;;;;;5033981;28;20165;-85
2021/03/19 02:56:00;;;;;;;7.90;4.40;;;4.20;98.40;;;;;;5033910;28;20529;-87
2021/03/19 02:58:27;;;;;;;9.30;4.03;;;4.20;98.80;;;;;;5033852;28;20572;-88
2021/03/19 03:00:52;;;;;;;10.87;5.27;;;4.30;99.00;;;;;;5033107;28;20205;-81
2021/03/19 03:03:19;;;;;;;8.03;5.17;;;4.30;98.50;;;;;;5033645;28;20208;-87
2021/03/19 03:05:45;;;;;;;7.27;3.93;;;4.30;98.60;;;;;;5034105;28;20170;-87
2021/03/19 03:08:20;;;;;;;11.13;4.67;;;4.20;98.90;;;;;;5034187;28;20157;-83
2021/03/19 03:10:47;;;;;;;10.23;4.33;;;4.20;99.00;;;;;;5034038;28;20177;-81
2021/03/19 03:13:14;;;;;;;10.13;4.30;;;4.20;99.00;;;;;;5032580;28;20177;-87
2021/03/19 03:15:41;;;;;;;9.50;4.63;;;4.20;99.00;;;;;;5032515;28;20668;-80
2021/03/19 03:18:09;;;;;;;10.30;4.90;;;4.20;99.00;;;;;;5033980;28;20201;-85
2021/03/19 03:20:56;;;;;;;9.43;5.03;;;4.30;99.10;;;;;;5034326;28;20178;-86
2021/03/19 03:23:24;;;;;;;11.20;5.27;;;4.20;99.00;;;;;;5033645;28;20169;-76
2021/03/19 03:25:50;;;;;;;10.77;5.70;;;4.20;99.00;;;;;;5033979;28;20180;-85
2021/03/19 03:28:18;;;;;;;7.57;4.60;;;4.20;99.50;;;;;;5033449;28;20189;-89
2021/03/19 03:30:51;;;;;;;12.53;4.13;;;4.20;99.40;;;;;;5033552;28;20178;-81
2021/03/19 03:33:17;;;;;;;9.17;5.30;;;4.10;99.30;;;;;;5039299;28;20664;-80
2021/03/19 03:35:44;;;;;;;9.03;4.87;;;4.10;99.40;;;;;;5037711;28;20169;-85
2021/03/19 03:38:17;;;;;;;13.73;5.60;;;4.00;99.40;;;;;;5037620;28;20791;-81
2021/03/19 03:40:52;;;;;;;12.90;6.03;;;4.00;99.60;;;;;;5037549;28;20220;-82
2021/03/19 03:43:18;;;;;;;17.73;5.80;;;4.00;99.70;;;;;;5037778;28;20198;-87
2021/03/19 03:45:44;;;;;;;9.03;5.50;;;3.90;99.80;;;;;;5037548;28;20247;-87
2021/03/19 03:48:13;;;;;;;10.17;5.70;;;3.90;99.90;;;;;;5036379;28;20182;-87
2021/03/19 03:50:40;;;;;;;10.90;5.87;;;3.90;99.90;;;;;;5040911;28;20189;-86
2021/03/19 03:53:08;;;;;;;10.37;5.73;;;3.90;99.70;;;;;;5041221;28;20181;-85
2021/03/19 03:55:35;;;;;;;8.57;5.50;;;3.90;99.90;;;;;;5040848;28;20177;-82
2021/03/19 03:58:01;;;;;;;9.10;6.00;;;3.80;99.80;;;;;;5038977;28;20217;-83
2021/03/19 04:00:27;;;;;;;9.37;6.33;;;3.90;99.80;;;;;;5036413;28;20202;-83
2021/03/19 04:02:53;;;;;;;11.13;6.23;;;3.80;99.90;;;;;;5036958;28;20162;-87
2021/03/19 04:05:40;;;;;;;9.30;5.77;;;3.80;99.90;;;;;;5036785;28;20204;-82
2021/03/19 04:08:07;;;;;;;9.33;6.17;;;3.80;99.90;;;;;;5035718;28;20540;-79
2021/03/19 04:10:34;;;;;;;9.93;5.93;;;3.80;99.90;;;;;;5035469;28;20173;-84
2021/03/19 04:13:00;;;;;;;11.70;6.70;;;3.80;99.90;;;;;;5036456;28;20169;-87
2021/03/19 04:15:26;;;;;;;10.00;6.67;;;3.80;99.90;;;;;;5036155;28;20712;-84
2021/03/19 04:17:58;;;;;;;8.47;5.83;;;3.80;99.90;;;;;;5036592;28;20197;-81
2021/03/19 04:20:25;;;;;;;9.87;6.60;;;3.80;99.90;;;;;;5036666;28;20173;-85
2021/03/19 04:22:52;;;;;;;9.57;5.93;;;3.80;99.90;;;;;;5036894;28;20228;-80
2021/03/19 04:25:19;;;;;;;10.13;6.83;;;3.80;99.90;;;;;;5036995;28;20535;-81
2021/03/19 04:27:51;;;;;;;13.23;6.93;;;3.80;99.90;;;;;;5037817;28;20182;-77
2021/03/19 04:30:26;;;;;;;15.40;6.40;;;3.80;99.90;;;;;;5036208;28;20252;-84
2021/03/19 04:32:54;;;;;;;9.40;5.47;;;3.70;99.90;;;;;;5036881;28;20165;-80
2021/03/19 04:35:22;;;;;;;9.50;6.67;;;3.70;99.90;;;;;;5036668;28;20180;-82
2021/03/19 04:37:49;;;;;;;15.03;7.50;;;3.70;99.90;;;;;;5036636;28;20204;-85
2021/03/19 04:40:16;;;;;;;10.10;7.23;;;3.60;99.90;;;;;;5036504;28;20176;-85
2021/03/19 04:42:42;;;;;;;12.93;6.77;;;3.60;99.90;;;;;;5035870;28;20181;-87
2021/03/19 04:45:09;;;;;;;12.47;7.17;;;3.60;99.90;;;;;;5035822;28;20227;-84
2021/03/19 04:47:34;;;;;;;12.30;8.00;;;3.60;99.90;;;;;;5036157;28;20525;-83
2021/03/19 04:50:00;;;;;;;12.43;8.07;;;3.60;99.90;;;;;;5035020;28;20204;-87
2021/03/19 04:52:26;;;;;;;12.10;7.53;;;3.60;99.90;;;;;;5035327;28;20166;-79
2021/03/19 04:54:51;;;;;;;15.27;7.80;;;3.60;99.90;;;;;;5034781;28;20231;-83
2021/03/19 04:57:18;;;;;;;11.00;7.50;;;3.50;99.90;;;;;;5035395;28;20523;-86
2021/03/19 04:59:44;;;;;;;12.80;7.00;;;3.50;99.90;;;;;;5035988;28;20720;-87
2021/03/19 05:02:09;;;;;;;11.47;7.97;;;3.50;99.90;;;;;;5036094;28;20169;-87
2021/03/19 05:04:35;;;;;;;12.90;7.83;;;3.50;99.90;;;;;;5036060;28;20166;-81
2021/03/19 05:07:06;;;;;;;15.77;8.17;;;3.50;99.90;;;;;;5036290;28;20253;-85
2021/03/19 05:09:32;;;;;;;10.60;7.77;;;3.50;99.90;;;;;;5034419;28;20173;-84
2021/03/19 05:11:59;;;;;;;13.13;8.73;;;3.40;99.90;;;;;;5034403;28;20185;-83
2021/03/19 05:14:25;;;;;;;11.07;7.70;;;3.40;99.90;;;;;;5035491;28;20178;-84
2021/03/19 05:16:51;;;;;;;13.50;8.37;;;3.40;99.90;;;;;;5035696;28;20548;-78
2021/03/19 05:19:18;;;;;;;12.90;8.57;;;3.40;99.90;;;;;;5035371;28;20201;-80
2021/03/19 05:21:44;;;;;;;8.03;6.20;;;3.30;99.90;;;;;;5035394;28;20287;-82
2021/03/19 05:24:11;;;;;;;12.20;9.17;;;3.30;99.90;;;;;;5035543;28;20200;-82
2021/03/19 05:26:39;;;;;;;11.97;8.70;;;3.30;99.90;;;;;;5034340;28;20176;-78
2021/03/19 05:29:05;;;;;;;10.60;8.33;;;3.30;99.90;;;;;;5034947;28;20595;-81
2021/03/19 05:31:30;;;;;;;11.53;8.40;;;3.30;99.90;;;;;;5035110;28;20237;-84
2021/03/19 05:33:56;;;;;;;13.27;10.13;;;3.30;99.90;;;;;;5035154;28;20169;-78
2021/03/19 05:36:25;;;;;;;15.83;9.80;;;3.20;99.90;;;;;;5034963;28;20162;-81
2021/03/19 05:38:52;;;;;;;14.27;10.00;;;3.20;99.90;;;;;;5034982;28;20215;-83
2021/03/19 05:41:20;;;;;;;13.87;9.23;;;3.20;99.90;;;;;;5034848;28;20174;-86
2021/03/19 05:43:52;;;;;;;14.33;9.20;;;3.20;99.90;;;;;;5034332;28;20186;-80
2021/03/19 05:46:23;;;;;;;11.47;9.57;;;3.10;99.90;;;;;;5033441;28;20700;-80
2021/03/19 05:48:57;;;;;;;14.30;9.73;;;3.10;99.90;;;;;;5034899;28;20180;-82
2021/03/19 05:51:33;;;;;;;13.73;10.97;;;3.10;99.90;;;;;;5034790;28;20199;-82
2021/03/19 05:54:13;;;;;;;14.63;9.77;;;3.10;99.90;;;;;;5033513;28;20272;-84
2021/03/19 05:56:40;;;;;;;12.00;10.23;;;3.10;99.90;;;;;;5033882;28;20181;-77
2021/03/19 05:59:06;;;;;;;14.47;10.03;;;3.10;99.90;;;;;;5034157;28;20225;-77
2021/03/19 06:01:33;;;;;;;14.20;10.30;;;3.10;99.90;;;;;;5034249;28;20260;-78
2021/03/19 06:03:59;;;;;;;14.47;10.60;;;3.10;99.90;;;;;;5034494;28;20166;-84
2021/03/19 06:06:54;;;;;;;16.37;11.20;;;3.10;99.90;;;;;;5033871;28;20529;-81
2021/03/19 06:09:36;;;;;;;15.13;11.07;;;3.10;99.90;;;;;;5033793;28;20189;-76
2021/03/19 06:12:17;;;;;;;15.20;10.77;;;3.00;99.90;;;;;;5033184;28;20180;-80
2021/03/19 06:14:53;;;;;;;16.80;11.70;;;3.00;99.90;;;;;;5033780;28;20178;-78
2021/03/19 06:17:42;;;;;;;16.73;11.03;;;3.00;99.90;;;;;;5033378;28;20173;-81
2021/03/19 06:20:12;;;;;;;16.80;11.33;;;3.00;99.90;;;;;;5033965;28;20264;-77
2021/03/19 06:22:48;;;;;;;17.50;10.40;;;3.10;99.90;;;;;;5033655;28;20172;-80
2021/03/19 06:25:33;;;;;;;13.70;10.30;;;3.10;99.90;;;;;;5047661;27;2471958;-81
2021/03/19 06:28:05;;;;;;;14.20;11.50;;;3.10;99.90;;;;;;5092518;28;20182;-81
2021/03/19 06:30:34;;;;;;;17.90;11.47;;;3.10;99.90;;;;;;5092951;28;20202;-81
2021/03/19 06:33:11;;;;;;;14.93;10.67;;;3.10;99.90;;;;;;5092493;28;20167;-77
2021/03/19 06:35:39;;;;;;;15.03;10.67;;;3.10;99.90;;;;;;5092631;28;20173;-77
2021/03/19 06:38:26;;;;;;;13.17;9.73;;;3.10;99.90;;;;;;5110680;28;20159;-79
2021/03/19 06:40:52;;;;;;;16.43;11.80;;;3.10;99.90;;;;;;5110741;28;20491;-84
2021/03/19 06:43:26;;;;;;;13.90;10.77;;;3.10;99.90;;;;;;5110867;28;20183;-80
2021/03/19 06:46:11;;;;;;;21.60;12.03;;;3.10;99.90;;;;;;5094272;28;20731;-79
2021/03/19 06:48:41;;;;;;;16.80;11.13;;;3.30;99.90;;;;;;5113340;28;20195;-79
2021/03/19 06:51:32;;;;;;;16.93;11.20;;;3.30;99.30;;;;;;5112269;28;20270;-79
2021/03/19 06:54:01;;;;;;;14.10;9.73;;;3.30;98.80;;;;;;5096429;28;20262;-80
2021/03/19 06:56:28;;;;;;;12.20;9.87;;;3.40;98.10;;;;;;5111281;28;20167;-79
2021/03/19 06:58:56;;;;;;;13.93;9.90;;;3.40;97.40;;;;;;5110054;28;20166;-78
2021/03/19 07:01:38;;;;;;;12.67;9.97;;;3.50;97.30;;;;;;5108441;28;20156;-85
2021/03/19 07:04:42;;;;;;;10.63;9.33;;;3.50;97.20;;;;;;5098383;28;20226;-79
2021/03/19 07:07:35;;;;;;;15.37;9.40;;;3.50;96.20;;;;;;5093720;28;20533;-86
2021/03/19 07:10:21;;;;;;;14.57;9.90;;;3.40;95.50;;;;;;5083724;28;20167;-78
2021/03/19 07:12:53;;;;;;;14.37;8.60;;;3.50;95.60;;;;;;5091815;28;20168;-81
2021/03/19 07:15:27;;;;;;;12.50;8.23;;;3.50;94.80;;;;;;5110181;28;20167;-81
2021/03/19 07:18:07;;;;;;;14.30;9.00;;;3.60;94.00;;;;;;5091703;28;20194;-84
2021/03/19 07:20:57;;;;;;;13.33;9.27;;;3.60;92.90;;;;;;5073388;28;20192;-84
2021/03/19 07:23:36;;;;;;;10.20;7.23;;;3.60;93.20;;;;;;5109075;28;20202;-86
2021/03/19 07:26:24;;;;;;;10.50;7.33;;;3.60;92.50;;;;;;5091794;28;20190;-77
2021/03/19 07:29:27;;;;;;;11.17;7.53;;;3.70;92.20;;;;;;5109081;28;20528;-80
2021/03/19 07:31:58;;;;;;;10.20;7.53;;;3.70;91.60;;;;;;5107295;28;20341;-79
2021/03/19 07:34:37;;;;;;;9.77;7.17;;;3.70;90.70;;;;;;5089857;28;20171;-85
2021/03/19 07:37:27;;;;;;;7.77;4.57;;;3.70;90.10;;;;;;5063186;28;20222;-80
2021/03/19 07:40:16;;;;;;;8.13;6.00;;;3.70;83.20;;;;;;5090077;28;20207;-86
2021/03/19 07:43:00;;;;;;;13.37;7.63;;;3.70;83.70;;;;;;5096180;28;20292;-84
2021/03/19 07:45:57;;;;;;;10.93;6.20;;;3.80;85.90;;;;;;5095704;28;20546;-79
2021/03/19 07:48:25;;;;;;;10.73;7.00;;;3.90;80.40;;;;;;5077235;28;20229;-84
2021/03/19 07:50:50;;;;;;;7.50;5.67;;;3.90;80.20;;;;;;5096051;28;20160;-87
2021/03/19 07:53:36;;;;;;;10.20;6.50;;;4.10;80.50;;;;;;5095047;28;20179;-79
2021/03/19 07:56:13;;;;;;;12.20;6.27;;;4.10;76.40;;;;;;5095466;28;20171;-84
2021/03/19 07:59:05;;;;;;;7.60;6.13;;;4.20;71.60;;;;;;5095865;28;20197;-84
2021/03/19 08:01:46;;;;;;;8.60;5.63;;;4.30;71.00;;;;;;5095482;28;20202;-80
2021/03/19 08:04:33;;;;;;;8.57;5.67;;;4.20;64.00;;;;;;5095272;28;20192;-82
2021/03/19 08:07:17;;;;;;;6.27;3.73;;;4.20;62.90;;;;;;5094614;28;20191;-82
2021/03/19 08:09:51;;;;;;;5.73;3.53;;;4.20;57.50;;;;;;5093673;28;20178;-86
2021/03/19 08:12:40;;;;;;;8.47;4.80;;;4.30;62.90;;;;;;5075519;28;20156;-87
2021/03/19 08:15:15;;;;;;;6.37;4.00;;;4.30;57.30;;;;;;5096290;28;20476;-86
2021/03/19 08:17:54;;;;;;;9.27;5.67;;;4.30;56.00;;;;;;5095609;28;20167;-79
2021/03/19 08:20:38;;;;;;;6.83;4.93;;;4.40;57.50;;;;;;5094773;28;20221;-81
2021/03/19 08:23:40;;;;;;;5.60;4.00;;;4.50;58.30;;;;;;5095957;28;20152;-83
2021/03/19 08:26:17;;;;;;;7.87;5.07;;;4.60;54.00;;;;;;5065976;28;20274;-84
2021/03/19 08:29:03;;;;;;;5.97;3.90;;;4.60;52.20;;;;;;5076711;28;20630;-82
2021/03/19 08:32:05;;;;;;;9.43;4.77;;;4.50;52.40;;;;;;5095231;28;20169;-80
2021/03/19 08:35:10;;;;;;;8.80;5.40;;;4.60;53.80;;;;;;4993487;28;20201;-78
2021/03/19 08:38:03;;;;;;;6.63;4.73;;;4.70;52.50;;;;;;5091440;28;20188;-87
2021/03/19 08:40:43;;;;;;;8.93;4.33;;;4.80;49.20;;;;;;5094608;28;20213;-85
2021/03/19 08:43:34;;;;;;;8.20;4.70;;;4.80;45.90;;;;;;5094675;28;20160;-88
2021/03/19 08:46:33;;;;;;;7.87;5.30;;;4.90;42.90;;;;;;5082250;28;20243;-85
2021/03/19 08:49:03;;;;;;;3.90;3.03;;;5.00;35.50;;;;;;5095414;28;20171;-85
2021/03/19 08:51:29;;;;;;;6.10;4.53;;;5.10;25.90;;;;;;5094247;28;20160;-86
2021/03/19 08:54:15;;;;;;;7.90;5.20;;;5.10;26.50;;;;;;5094712;28;20495;-86
2021/03/19 08:56:50;;;;;;;7.70;4.20;;;5.20;24.50;;;;;;5094437;28;20195;-86
2021/03/19 08:59:31;;;;;;;9.30;4.13;;;5.30;12.30;;;;;;5075894;28;20530;-83
2021/03/19 09:01:59;;;;;;;6.93;3.80;;;5.30;14.20;;;;;;5076031;28;20531;-85
2021/03/19 09:04:57;;;;;;;6.80;3.90;;;5.40;14.00;;;;;;5094006;28;20199;-82
2021/03/19 09:08:16;;;;;;;5.70;3.33;;;5.40;10.10;;;;;;5074514;28;20190;-82
2021/03/19 09:10:42;;;;;;;6.00;3.97;;;5.50;10.60;;;;;;5083498;28;20240;-80
2021/03/19 09:13:09;;;;;;;7.83;4.30;;;5.60;16.80;;;;;;5081155;28;20195;-82
2021/03/19 09:15:45;;;;;;;6.10;3.80;;;5.80;17.60;;;;;;5094034;28;20163;-83
2021/03/19 09:18:11;;;;;;;7.13;3.83;;;5.70;12.50;;;;;;5094193;28;20167;-80
2021/03/19 09:20:36;;;;;;;6.30;3.57;;;5.70;14.70;;;;;;5093507;28;20512;-80
2021/03/19 09:23:07;;;;;;;6.80;3.63;;;5.80;12.40;;;;;;5093541;28;20627;-80
2021/03/19 09:25:50;;;;;;;8.20;3.60;;;5.90;14.20;;;;;;5093836;28;20285;-84
2021/03/19 09:28:31;;;;;;;7.37;3.97;;;5.90;11.80;;;;;;5093679;28;20175;-80
2021/03/19 09:31:32;;;;;;;5.63;3.27;;;6.00;10.00;;;;;;5093380;28;20631;-81
2021/03/19 09:34:17;;;;;;;7.43;3.57;;;5.90;1.00;;;;;;5092771;28;20270;-82
2021/03/19 09:37:03;;;;;;;6.97;3.40;;;6.00;9.60;;;;;;5075548;28;20255;-82
2021/03/19 09:39:47;;;;;;;7.03;3.10;;;6.20;11.70;;;;;;5093524;28;20174;-80
2021/03/19 09:42:33;;;;;;;5.07;2.73;;;6.40;1.00;;;;;;5093157;28;20167;-85
2021/03/19 09:44:59;;;;;;;9.47;3.30;;;6.40;1.00;;;;;;5075625;28;20670;-89
2021/03/19 09:47:47;;;;;;;5.53;3.10;;;6.40;1.00;;;;;;5093233;28;20192;-87
2021/03/19 09:50:31;;;;;;;5.63;2.53;;;6.40;1.00;;;;;;5026342;28;20643;-80
2021/03/19 09:53:15;;;;;;;4.93;3.20;;;6.50;1.00;;;;;;5094878;28;20594;-85
2021/03/19 09:55:51;;;;;;;4.87;2.40;;;6.50;1.00;;;;;;5078790;28;20186;-80
2021/03/19 09:58:57;;;;;;;3.90;2.60;;;6.60;1.00;;;;;;5094769;28;20167;-83
2021/03/19 10:01:39;;;;;;;6.47;2.87;;;6.60;1.00;;;;;;5013114;28;20189;-79
2021/03/19 10:04:07;;;;;;;5.27;2.43;;;6.60;1.00;;;;;;5010751;28;20213;-80
2021/03/19 10:06:40;;;;;;;3.50;2.20;;;6.70;1.00;;;;;;5060646;28;20184;-81
2021/03/19 10:09:22;;;;;;;3.53;2.30;;;6.70;1.00;;;;;;5093324;28;20220;-84
2021/03/19 10:12:00;;;;;;;3.80;2.13;;;6.90;1.00;;;;;;5073399;28;20164;-88
2021/03/19 10:14:30;;;;;;;5.60;2.63;;;6.90;1.00;;;;;;5091026;28;20642;-82
2021/03/19 10:17:15;;;;;;;5.17;2.80;;;7.10;1.00;;;;;;5074618;28;20508;-87
2021/03/19 10:19:45;;;;;;;5.17;2.33;;;7.20;1.00;;;;;;5073207;28;20259;-88
2021/03/19 10:22:25;;;;;;;3.63;2.13;;;7.10;1.00;;;;;;5091173;28;20216;-82
2021/03/19 10:24:50;;;;;;;3.40;1.70;;;7.10;1.00;;;;;;5092322;28;20218;-86
2021/03/19 10:27:17;;;;;;;4.50;1.80;;;7.00;1.00;;;;;;5075282;28;20176;-86
2021/03/19 10:29:46;;;;;;;4.63;1.50;;;7.00;1.00;;;;;;5092926;28;20216;-80
2021/03/19 10:32:16;;;;;;;1.97;1.40;;;7.00;1.00;;;;;;5090437;28;20258;-87
2021/03/19 10:34:59;;;;;;;5.03;1.53;;;6.90;99.90;;;;;;5091769;28;20230;-80
2021/03/19 10:37:38;;;;;;;1.83;1.30;;;7.00;1.00;;;;;;5089605;28;20172;-82
2021/03/19 10:40:13;;;;;;;4.87;1.93;;;6.90;99.90;;;;;;5062950;28;20191;-81
2021/03/19 10:43:01;;;;;;;4.73;1.80;;;7.00;1.00;;;;;;5092081;28;20159;-80
2021/03/19 10:45:49;;;;;;;3.73;1.60;;;7.20;1.00;;;;;;5093738;28;20176;-86
2021/03/19 10:48:32;;;;;;;3.73;1.83;;;7.20;99.90;;;;;;5075675;28;20179;-87
2021/03/19 10:51:07;;;;;;;2.77;1.30;;;7.30;1.00;;;;;;5074194;28;20175;-86
2021/03/19 10:53:47;;;;;;;3.30;1.73;;;7.30;99.90;;;;;;5092099;28;20178;-84
2021/03/19 10:56:14;;;;;;;3.93;1.67;;;7.30;99.90;;;;;;5093330;28;20183;-78
2021/03/19 10:58:54;;;;;;;2.73;2.23;;;7.30;99.90;;;;;;5092245;28;20220;-91
2021/03/19 11:01:38;;;;;;;4.23;1.90;;;7.60;1.00;;;;;;5092631;28;20700;-82
2021/03/19 11:04:32;;;;;;;3.80;1.93;;;7.50;99.90;;;;;;5092102;28;20207;-84
2021/03/19 11:06:58;;;;;;;2.63;1.83;;;7.30;99.90;;;;;;5072677;28;20176;-80
2021/03/19 11:09:26;;;;;;;3.27;2.20;;;7.40;99.90;;;;;;5072013;28;20222;-82
2021/03/19 11:11:58;;;;;;;3.37;1.77;;;7.60;1.00;;;;;;5075007;28;20241;-83
2021/03/19 11:14:27;;;;;;;3.50;2.00;;;7.50;1.00;;;;;;5093357;28;20171;-77
2021/03/19 11:17:15;;;;;;;4.73;2.07;;;7.60;1.00;;;;;;5095053;28;20297;-83
2021/03/19 11:20:32;;;;;;;3.33;2.00;;;7.60;1.00;;;;;;5094523;28;20163;-82
2021/03/19 11:22:58;;;;;;;3.80;1.83;;;7.60;99.90;;;;;;5038557;28;20187;-90
2021/03/19 11:25:45;;;;;;;2.80;2.03;;;7.70;1.00;;;;;;5095928;28;20272;-85
2021/03/19 11:28:38;;;;;;;3.60;2.00;;;7.70;1.00;;;;;;5098348;28;20172;-86
2021/03/19 11:31:22;;;;;;;2.90;1.93;;;7.80;99.90;;;;;;5091779;28;20183;-85
2021/03/19 11:34:01;;;;;;;2.57;1.50;;;7.90;1.00;;;;;;5080577;28;20172;-80
2021/03/19 11:36:46;;;;;;;7.17;1.97;;;8.10;99.90;;;;;;5096033;28;20213;-86
2021/03/19 11:39:16;;;;;;;3.27;1.77;;;8.00;99.90;;;;;;5075563;28;20218;-79
2021/03/19 11:41:43;;;;;;;4.23;2.00;;;7.90;99.90;;;;;;5074740;28;20179;-77
2021/03/19 11:44:09;;;;;;;4.80;2.07;;;7.80;99.90;;;;;;5073740;28;20204;-79
2021/03/19 11:46:35;;;;;;;2.70;1.80;;;7.90;99.90;;;;;;5074243;28;20234;-83
2021/03/19 11:49:01;;;;;;;3.70;2.30;;;7.90;1.00;;;;;;5074865;28;20169;-83
2021/03/19 11:51:31;;;;;;;4.03;2.47;;;8.00;1.00;;;;;;5076072;28;20550;-86
2021/03/19 11:54:01;;;;;;;3.80;2.17;;;8.00;1.00;;;;;;5074747;28;20172;-83
2021/03/19 11:56:30;;;;;;;4.00;2.90;;;8.00;1.00;;;;;;5074982;28;20187;-79
2021/03/19 11:58:56;;;;;;;3.87;2.37;;;8.00;1.00;;;;;;5056303;28;20176;-87
2021/03/19 12:01:23;;;;;;;3.77;1.93;;;8.00;1.00;;;;;;5074067;28;20164;-86
2021/03/19 12:03:53;;;;;;;3.03;1.93;;;7.90;99.90;;;;;;5073619;28;20655;-79
2021/03/19 12:06:22;;;;;;;3.43;2.27;;;8.10;99.90;;;;;;5074176;28;20219;-80
2021/03/19 12:08:48;;;;;;;4.80;2.00;;;8.10;99.90;;;;;;5073741;28;20177;-78
2021/03/19 12:11:24;;;;;;;3.23;2.10;;;8.30;99.90;;;;;;5087934;28;20170;-79
2021/03/19 12:13:51;;;;;;;3.93;2.40;;;8.30;97.60;;;;;;5062331;28;20267;-81
2021/03/19 12:16:17;;;;;;;3.93;2.00;;;8.40;99.90;;;;;;5073755;28;20171;-80
2021/03/19 12:18:43;;;;;;;4.83;2.57;;;8.40;82.40;;;;;;5074078;28;20165;-79
2021/03/19 12:21:08;;;;;;;10.27;5.77;;;8.50;99.90;;;;;;5072459;28;20164;-78
2021/03/19 12:23:34;;;;;;;3.63;2.43;;;8.70;99.90;;;;;;5055437;28;20617;-78
2021/03/19 12:26:00;;;;;;;4.77;2.40;;;8.90;99.90;;;;;;5073759;28;20253;-80
2021/03/19 12:28:26;;;;;;;3.67;2.17;;;8.80;99.90;;;;;;5075320;28;20222;-83
2021/03/19 12:30:54;;;;;;;7.80;3.60;;;8.70;24.40;;;;;;5072921;28;20481;-80
2021/03/19 12:33:22;;;;;;;3.73;1.97;;;8.40;99.90;;;;;;5073532;28;20648;-83
2021/03/19 12:35:48;;;;;;;5.13;2.73;;;8.50;99.90;;;;;;5073847;28;20254;-78
2021/03/19 12:38:14;;;;;;;3.97;2.20;;;8.60;1.00;;;;;;5055219;28;20183;-80
2021/03/19 12:40:40;;;;;;;3.80;2.30;;;8.50;99.90;;;;;;5073333;28;20280;-84
2021/03/19 12:43:08;;;;;;;5.60;2.70;;;8.50;99.90;;;;;;5072243;28;20255;-83
2021/03/19 12:45:35;;;;;;;4.37;2.17;;;8.50;99.90;;;;;;5072117;28;20287;-77
2021/03/19 12:48:01;;;;;;;4.40;2.20;;;8.40;1.00;;;;;;5072582;28;20180;-78
2021/03/19 12:50:28;;;;;;;4.67;2.43;;;8.40;1.00;;;;;;5072875;28;20172;-80
2021/03/19 12:52:55;;;;;;;5.03;1.70;;;8.40;1.00;;;;;;5073354;28;20479;-80
2021/03/19 12:55:22;;;;;;;3.17;1.93;;;8.40;99.90;;;;;;5072674;28;20275;-78
2021/03/19 12:57:48;;;;;;;4.33;2.10;;;8.40;99.90;;;;;;5073732;28;20584;-87
2021/03/19 13:00:26;;;;;;;2.40;1.90;;;8.50;99.90;;;;;;5073550;28;20251;-80
2021/03/19 13:02:51;;;;;;;3.87;2.30;;;8.50;99.90;;;;;;5054594;28;20223;-83
2021/03/19 13:05:19;;;;;;;3.60;2.10;;;8.60;1.00;;;;;;5073134;28;20265;-80
2021/03/19 13:07:44;;;;;;;2.73;1.93;;;8.60;99.90;;;;;;5078477;28;20508;-80
2021/03/19 13:10:10;;;;;;;4.13;2.50;;;8.60;1.00;;;;;;5074726;28;20187;-80
2021/03/19 13:12:36;;;;;;;5.23;2.13;;;8.60;1.00;;;;;;5072843;28;20169;-81
2021/03/19 13:15:05;;;;;;;3.67;1.97;;;8.60;1.00;;;;;;5072995;28;20168;-79
2021/03/19 13:17:32;;;;;;;3.83;1.80;;;8.70;1.00;;;;;;5054873;28;20613;-78
2021/03/19 13:19:57;;;;;;;6.30;2.50;;;8.80;1.00;;;;;;5074223;28;20184;-83
2021/03/19 13:22:23;;;;;;;5.73;1.87;;;8.90;99.90;;;;;;5074074;28;20226;-79
2021/03/19 13:24:49;;;;;;;3.60;1.93;;;9.10;1.00;;;;;;5073358;28;20733;-80
2021/03/19 13:27:15;;;;;;;3.50;1.90;;;9.10;1.00;;;;;;5073052;28;20172;-87
2021/03/19 13:29:40;;;;;;;3.13;2.10;;;9.00;1.00;;;;;;5073300;28;20172;-78
2021/03/19 13:32:06;;;;;;;3.90;2.00;;;9.00;1.00;;;;;;5072727;28;20160;-79
2021/03/19 13:34:32;;;;;;;4.70;2.30;;;9.20;1.00;;;;;;5054405;28;20194;-81
2021/03/19 13:36:58;;;;;;;3.60;2.03;;;9.10;1.00;;;;;;5072799;28;20200;-85